Kuwait City, Kuwait
Current Conditions -  °F | °C
As of 11:00 PM on Monday 26 Jan 2015 (Local Time) from OKBK Reporting Station
Clear Clear  
Wind Chill: 61°   Ceiling: Unl
Heat Index: 61°   Visibility: 4mi
Dew Point: 50°   Wind: 7mph
Humidity: 68%   Direction: 150°SSE
Pressure: 30.12"   Gusts: NA
Location:  29.22°N, 47.98°E
Report Text: OKBK 262000Z 15006KT 6000 NSC 16/10 Q1020 NOSIG
Loading
Personal Weather Stations






























Interactive Weather Map New forecast layout! Learn more

10-Day Weather Forecast

Advertisements
Track Severe Weather on mobile